sensor_id;sensor_type;location;lat;lon;timestamp;P1;durP1;ratioP1;P2;durP2;ratioP2
52878;SDS011;38747;53.140;6.498;2022-11-04T00:01:42;18.47;;;11.87;;
52878;SDS011;38747;53.140;6.498;2022-11-04T00:04:10;17.23;;;11.32;;
52878;SDS011;38747;53.140;6.498;2022-11-04T00:06:37;17.35;;;10.82;;
52878;SDS011;38747;53.140;6.498;2022-11-04T00:09:04;16.85;;;11.15;;
52878;SDS011;38747;53.140;6.498;2022-11-04T00:11:32;18.25;;;11.25;;
52878;SDS011;38747;53.140;6.498;2022-11-04T00:14:16;17.80;;;11.00;;
52878;SDS011;38747;53.140;6.498;2022-11-04T00:16:43;17.48;;;10.68;;
52878;SDS011;38747;53.140;6.498;2022-11-04T00:19:28;14.90;;;9.90;;
52878;SDS011;38747;53.140;6.498;2022-11-04T00:22:13;17.52;;;10.18;;
52878;SDS011;38747;53.140;6.498;2022-11-04T00:25:12;17.27;;;10.45;;
52878;SDS011;38747;53.140;6.498;2022-11-04T00:31:07;8.73;;;5.30;;
52878;SDS011;38747;53.140;6.498;2022-11-04T00:33:52;8.93;;;5.00;;
52878;SDS011;38747;53.140;6.498;2022-11-04T00:36:20;8.10;;;4.30;;
52878;SDS011;38747;53.140;6.498;2022-11-04T00:38:47;7.35;;;3.97;;
52878;SDS011;38747;53.140;6.498;2022-11-04T00:41:13;5.67;;;2.60;;
52878;SDS011;38747;53.140;6.498;2022-11-04T00:43:54;6.05;;;2.35;;
52878;SDS011;38747;53.140;6.498;2022-11-04T00:46:21;5.72;;;1.92;;
52878;SDS011;38747;53.140;6.498;2022-11-04T00:48:47;6.10;;;2.10;;
52878;SDS011;38747;53.140;6.498;2022-11-04T00:51:13;7.32;;;2.20;;
52878;SDS011;38747;53.140;6.498;2022-11-04T00:53:39;5.45;;;1.90;;
52878;SDS011;38747;53.140;6.498;2022-11-04T00:56:05;4.17;;;1.50;;
52878;SDS011;38747;53.140;6.498;2022-11-04T00:58:30;4.95;;;1.58;;
52878;SDS011;38747;53.140;6.498;2022-11-04T01:00:56;2.77;;;1.10;;
52878;SDS011;38747;53.140;6.498;2022-11-04T01:03:21;3.00;;;1.00;;
52878;SDS011;38747;53.140;6.498;2022-11-04T01:05:47;4.63;;;1.10;;
52878;SDS011;38747;53.140;6.498;2022-11-04T01:08:13;2.43;;;0.80;;
52878;SDS011;38747;53.140;6.498;2022-11-04T01:10:38;2.07;;;0.67;;
52878;SDS011;38747;53.140;6.498;2022-11-04T01:13:11;3.03;;;0.60;;
52878;SDS011;38747;53.140;6.498;2022-11-04T01:15:37;4.47;;;0.60;;
52878;SDS011;38747;53.140;6.498;2022-11-04T01:18:03;2.47;;;0.57;;
52878;SDS011;38747;53.140;6.498;2022-11-04T01:20:29;3.15;;;0.50;;
52878;SDS011;38747;53.140;6.498;2022-11-04T01:22:55;1.95;;;0.55;;
52878;SDS011;38747;53.140;6.498;2022-11-04T01:25:21;2.23;;;0.70;;
52878;SDS011;38747;53.140;6.498;2022-11-04T01:27:46;5.47;;;0.90;;
52878;SDS011;38747;53.140;6.498;2022-11-04T01:30:12;1.85;;;0.60;;
52878;SDS011;38747;53.140;6.498;2022-11-04T01:32:38;3.57;;;0.70;;
52878;SDS011;38747;53.140;6.498;2022-11-04T01:35:04;2.53;;;0.90;;
52878;SDS011;38747;53.140;6.498;2022-11-04T01:37:30;2.92;;;0.70;;
52878;SDS011;38747;53.140;6.498;2022-11-04T01:39:55;4.83;;;0.63;;
52878;SDS011;38747;53.140;6.498;2022-11-04T01:42:21;3.00;;;0.82;;
52878;SDS011;38747;53.140;6.498;2022-11-04T01:44:48;1.80;;;0.57;;
52878;SDS011;38747;53.140;6.498;2022-11-04T01:47:29;2.83;;;0.85;;
52878;SDS011;38747;53.140;6.498;2022-11-04T01:50:06;5.80;;;0.50;;
52878;SDS011;38747;53.140;6.498;2022-11-04T01:52:42;3.28;;;0.50;;
52878;SDS011;38747;53.140;6.498;2022-11-04T01:55:22;5.53;;;0.50;;
52878;SDS011;38747;53.140;6.498;2022-11-04T01:57:51;4.45;;;0.50;;
52878;SDS011;38747;53.140;6.498;2022-11-04T02:00:20;5.95;;;0.70;;
52878;SDS011;38747;53.140;6.498;2022-11-04T02:02:53;3.97;;;0.57;;
52878;SDS011;38747;53.140;6.498;2022-11-04T02:05:24;2.73;;;0.60;;
52878;SDS011;38747;53.140;6.498;2022-11-04T02:07:52;3.60;;;0.70;;
52878;SDS011;38747;53.140;6.498;2022-11-04T02:10:21;3.83;;;0.57;;
52878;SDS011;38747;53.140;6.498;2022-11-04T02:12:48;4.35;;;0.63;;
52878;SDS011;38747;53.140;6.498;2022-11-04T02:21:04;6.45;;;0.60;;
52878;SDS011;38747;53.140;6.498;2022-11-04T02:23:57;3.58;;;0.60;;
52878;SDS011;38747;53.140;6.498;2022-11-04T02:32:21;7.23;;;0.97;;
52878;SDS011;38747;53.140;6.498;2022-11-04T02:35:02;4.80;;;0.50;;
52878;SDS011;38747;53.140;6.498;2022-11-04T02:40:22;6.55;;;0.70;;
52878;SDS011;38747;53.140;6.498;2022-11-04T02:42:59;6.43;;;0.68;;
52878;SDS011;38747;53.140;6.498;2022-11-04T02:45:37;2.67;;;0.40;;
52878;SDS011;38747;53.140;6.498;2022-11-04T02:48:07;4.13;;;0.40;;
52878;SDS011;38747;53.140;6.498;2022-11-04T02:50:44;4.75;;;0.50;;
52878;SDS011;38747;53.140;6.498;2022-11-04T02:53:32;4.72;;;0.70;;
52878;SDS011;38747;53.140;6.498;2022-11-04T02:56:21;6.10;;;0.70;;
52878;SDS011;38747;53.140;6.498;2022-11-04T02:58:54;5.27;;;0.70;;
52878;SDS011;38747;53.140;6.498;2022-11-04T03:01:22;2.83;;;0.40;;
52878;SDS011;38747;53.140;6.498;2022-11-04T03:03:56;5.18;;;0.95;;
52878;SDS011;38747;53.140;6.498;2022-11-04T03:06:28;5.28;;;0.50;;
52878;SDS011;38747;53.140;6.498;2022-11-04T03:08:55;5.82;;;0.70;;
52878;SDS011;38747;53.140;6.498;2022-11-04T03:11:23;3.10;;;0.60;;
52878;SDS011;38747;53.140;6.498;2022-11-04T03:13:58;5.05;;;0.60;;
52878;SDS011;38747;53.140;6.498;2022-11-04T03:19:08;3.27;;;0.60;;
52878;SDS011;38747;53.140;6.498;2022-11-04T03:21:58;6.57;;;0.70;;
52878;SDS011;38747;53.140;6.498;2022-11-04T03:24:29;7.22;;;0.90;;
52878;SDS011;38747;53.140;6.498;2022-11-04T03:27:04;3.63;;;0.73;;
52878;SDS011;38747;53.140;6.498;2022-11-04T03:29:45;4.32;;;0.70;;
52878;SDS011;38747;53.140;6.498;2022-11-04T03:32:21;3.87;;;0.60;;
52878;SDS011;38747;53.140;6.498;2022-11-04T03:35:03;4.93;;;0.70;;
52878;SDS011;38747;53.140;6.498;2022-11-04T03:37:30;4.53;;;0.50;;
52878;SDS011;38747;53.140;6.498;2022-11-04T03:39:56;5.53;;;0.70;;
52878;SDS011;38747;53.140;6.498;2022-11-04T03:42:22;4.87;;;0.60;;
52878;SDS011;38747;53.140;6.498;2022-11-04T03:44:49;5.68;;;0.98;;
52878;SDS011;38747;53.140;6.498;2022-11-04T03:47:18;6.15;;;0.70;;
52878;SDS011;38747;53.140;6.498;2022-11-04T03:49:46;6.50;;;1.00;;
52878;SDS011;38747;53.140;6.498;2022-11-04T03:52:13;3.03;;;0.77;;
52878;SDS011;38747;53.140;6.498;2022-11-04T03:54:41;3.28;;;0.60;;
52878;SDS011;38747;53.140;6.498;2022-11-04T04:05:21;4.70;;;0.83;;
52878;SDS011;38747;53.140;6.498;2022-11-04T04:13:36;6.15;;;0.90;;
52878;SDS011;38747;53.140;6.498;2022-11-04T04:16:06;4.65;;;0.80;;
52878;SDS011;38747;53.140;6.498;2022-11-04T04:18:41;5.30;;;0.90;;
52878;SDS011;38747;53.140;6.498;2022-11-04T04:21:30;3.75;;;1.08;;
52878;SDS011;38747;53.140;6.498;2022-11-04T04:24:02;4.78;;;1.00;;
52878;SDS011;38747;53.140;6.498;2022-11-04T04:26:49;3.55;;;0.75;;
52878;SDS011;38747;53.140;6.498;2022-11-04T04:29:35;3.85;;;0.80;;
52878;SDS011;38747;53.140;6.498;2022-11-04T04:32:02;4.00;;;0.70;;
52878;SDS011;38747;53.140;6.498;2022-11-04T04:34:30;4.05;;;0.60;;
52878;SDS011;38747;53.140;6.498;2022-11-04T04:39:52;2.63;;;0.60;;
52878;SDS011;38747;53.140;6.498;2022-11-04T04:42:37;2.08;;;0.50;;
52878;SDS011;38747;53.140;6.498;2022-11-04T04:45:27;3.83;;;0.40;;
52878;SDS011;38747;53.140;6.498;2022-11-04T04:47:59;4.47;;;0.50;;
52878;SDS011;38747;53.140;6.498;2022-11-04T04:50:26;3.70;;;0.50;;
52878;SDS011;38747;53.140;6.498;2022-11-04T04:52:55;2.30;;;0.45;;
52878;SDS011;38747;53.140;6.498;2022-11-04T04:55:22;2.47;;;0.70;;
52878;SDS011;38747;53.140;6.498;2022-11-04T04:57:48;5.20;;;0.60;;
52878;SDS011;38747;53.140;6.498;2022-11-04T05:00:15;1.45;;;0.50;;
52878;SDS011;38747;53.140;6.498;2022-11-04T05:02:43;3.47;;;0.43;;
52878;SDS011;38747;53.140;6.498;2022-11-04T05:05:12;5.43;;;0.40;;
52878;SDS011;38747;53.140;6.498;2022-11-04T05:07:38;2.83;;;0.50;;
52878;SDS011;38747;53.140;6.498;2022-11-04T05:10:04;2.60;;;0.60;;
52878;SDS011;38747;53.140;6.498;2022-11-04T05:12:33;2.08;;;0.50;;
52878;SDS011;38747;53.140;6.498;2022-11-04T05:15:20;5.50;;;0.63;;
52878;SDS011;38747;53.140;6.498;2022-11-04T05:17:46;6.43;;;0.60;;
52878;SDS011;38747;53.140;6.498;2022-11-04T05:20:12;4.33;;;0.60;;
52878;SDS011;38747;53.140;6.498;2022-11-04T05:22:38;5.07;;;0.80;;
52878;SDS011;38747;53.140;6.498;2022-11-04T05:25:04;2.80;;;0.60;;
52878;SDS011;38747;53.140;6.498;2022-11-04T05:27:30;6.03;;;0.70;;
52878;SDS011;38747;53.140;6.498;2022-11-04T05:29:56;4.63;;;0.60;;
52878;SDS011;38747;53.140;6.498;2022-11-04T05:32:21;3.37;;;0.50;;
52878;SDS011;38747;53.140;6.498;2022-11-04T05:34:47;2.55;;;0.50;;
52878;SDS011;38747;53.140;6.498;2022-11-04T05:37:13;4.53;;;0.60;;
52878;SDS011;38747;53.140;6.498;2022-11-04T05:39:38;3.63;;;0.50;;
52878;SDS011;38747;53.140;6.498;2022-11-04T05:42:04;4.30;;;1.00;;
52878;SDS011;38747;53.140;6.498;2022-11-04T05:44:30;3.03;;;0.50;;
52878;SDS011;38747;53.140;6.498;2022-11-04T05:46:56;2.50;;;0.50;;
52878;SDS011;38747;53.140;6.498;2022-11-04T05:49:21;2.50;;;0.50;;
52878;SDS011;38747;53.140;6.498;2022-11-04T05:51:47;4.22;;;0.55;;
52878;SDS011;38747;53.140;6.498;2022-11-04T05:54:13;2.90;;;0.87;;
52878;SDS011;38747;53.140;6.498;2022-11-04T05:56:39;2.53;;;0.60;;
52878;SDS011;38747;53.140;6.498;2022-11-04T05:59:05;2.95;;;0.57;;
52878;SDS011;38747;53.140;6.498;2022-11-04T06:01:33;4.13;;;0.50;;
52878;SDS011;38747;53.140;6.498;2022-11-04T06:04:00;4.28;;;0.55;;
52878;SDS011;38747;53.140;6.498;2022-11-04T06:06:27;3.70;;;0.63;;
52878;SDS011;38747;53.140;6.498;2022-11-04T06:08:55;3.95;;;0.80;;
52878;SDS011;38747;53.140;6.498;2022-11-04T06:11:22;4.63;;;0.65;;
52878;SDS011;38747;53.140;6.498;2022-11-04T06:13:48;5.82;;;0.73;;
52878;SDS011;38747;53.140;6.498;2022-11-04T06:16:15;2.95;;;0.60;;
52878;SDS011;38747;53.140;6.498;2022-11-04T06:18:41;4.43;;;0.60;;
52878;SDS011;38747;53.140;6.498;2022-11-04T06:21:08;6.28;;;0.80;;
52878;SDS011;38747;53.140;6.498;2022-11-04T06:23:37;5.05;;;0.70;;
52878;SDS011;38747;53.140;6.498;2022-11-04T06:26:04;6.75;;;0.90;;
52878;SDS011;38747;53.140;6.498;2022-11-04T06:28:30;2.83;;;0.80;;
52878;SDS011;38747;53.140;6.498;2022-11-04T06:30:59;4.37;;;0.80;;
52878;SDS011;38747;53.140;6.498;2022-11-04T06:33:36;6.07;;;0.80;;
52878;SDS011;38747;53.140;6.498;2022-11-04T06:36:11;4.03;;;0.80;;
52878;SDS011;38747;53.140;6.498;2022-11-04T06:38:38;4.00;;;0.80;;
52878;SDS011;38747;53.140;6.498;2022-11-04T06:41:05;5.83;;;1.33;;
52878;SDS011;38747;53.140;6.498;2022-11-04T06:43:35;5.53;;;1.10;;
52878;SDS011;38747;53.140;6.498;2022-11-04T06:46:00;2.92;;;0.80;;
52878;SDS011;38747;53.140;6.498;2022-11-04T06:48:26;5.95;;;1.10;;
52878;SDS011;38747;53.140;6.498;2022-11-04T06:50:55;4.90;;;1.10;;
52878;SDS011;38747;53.140;6.498;2022-11-04T06:53:22;6.70;;;1.08;;
52878;SDS011;38747;53.140;6.498;2022-11-04T06:55:50;5.53;;;1.30;;
52878;SDS011;38747;53.140;6.498;2022-11-04T06:58:19;5.30;;;1.10;;
52878;SDS011;38747;53.140;6.498;2022-11-04T07:00:54;7.13;;;1.20;;
52878;SDS011;38747;53.140;6.498;2022-11-04T07:03:20;3.42;;;1.00;;
52878;SDS011;38747;53.140;6.498;2022-11-04T07:05:45;3.30;;;1.10;;
52878;SDS011;38747;53.140;6.498;2022-11-04T07:08:12;4.35;;;1.17;;
52878;SDS011;38747;53.140;6.498;2022-11-04T07:10:38;4.05;;;0.90;;
52878;SDS011;38747;53.140;6.498;2022-11-04T07:13:04;4.53;;;1.10;;
52878;SDS011;38747;53.140;6.498;2022-11-04T07:15:30;6.83;;;1.10;;
52878;SDS011;38747;53.140;6.498;2022-11-04T07:17:57;6.65;;;1.50;;
52878;SDS011;38747;53.140;6.498;2022-11-04T07:20:27;4.13;;;1.40;;
52878;SDS011;38747;53.140;6.498;2022-11-04T07:22:55;5.18;;;1.10;;
52878;SDS011;38747;53.140;6.498;2022-11-04T07:25:21;5.33;;;1.10;;
52878;SDS011;38747;53.140;6.498;2022-11-04T07:27:47;4.97;;;1.10;;
52878;SDS011;38747;53.140;6.498;2022-11-04T07:30:12;6.68;;;1.10;;
52878;SDS011;38747;53.140;6.498;2022-11-04T07:32:38;2.97;;;0.70;;
52878;SDS011;38747;53.140;6.498;2022-11-04T07:35:04;4.13;;;0.90;;
52878;SDS011;38747;53.140;6.498;2022-11-04T07:37:30;3.93;;;0.90;;
52878;SDS011;38747;53.140;6.498;2022-11-04T07:39:55;3.97;;;1.10;;
52878;SDS011;38747;53.140;6.498;2022-11-04T07:42:21;4.07;;;0.80;;
52878;SDS011;38747;53.140;6.498;2022-11-04T07:44:47;4.18;;;1.10;;
52878;SDS011;38747;53.140;6.498;2022-11-04T07:47:12;4.70;;;1.03;;
52878;SDS011;38747;53.140;6.498;2022-11-04T07:49:38;4.03;;;0.90;;
52878;SDS011;38747;53.140;6.498;2022-11-04T07:52:07;4.10;;;0.93;;
52878;SDS011;38747;53.140;6.498;2022-11-04T07:54:32;5.80;;;1.20;;
52878;SDS011;38747;53.140;6.498;2022-11-04T07:56:58;6.20;;;1.30;;
52878;SDS011;38747;53.140;6.498;2022-11-04T07:59:24;3.97;;;1.33;;
52878;SDS011;38747;53.140;6.498;2022-11-04T08:01:49;3.92;;;1.00;;
52878;SDS011;38747;53.140;6.498;2022-11-04T08:04:15;4.47;;;1.10;;
52878;SDS011;38747;53.140;6.498;2022-11-04T08:06:41;5.13;;;1.00;;
52878;SDS011;38747;53.140;6.498;2022-11-04T08:09:07;4.07;;;1.33;;
52878;SDS011;38747;53.140;6.498;2022-11-04T08:11:33;7.80;;;1.10;;
52878;SDS011;38747;53.140;6.498;2022-11-04T08:14:01;6.70;;;1.25;;
52878;SDS011;38747;53.140;6.498;2022-11-04T08:16:27;4.03;;;1.20;;
52878;SDS011;38747;53.140;6.498;2022-11-04T08:18:53;5.80;;;1.10;;
52878;SDS011;38747;53.140;6.498;2022-11-04T08:21:19;4.78;;;1.17;;
52878;SDS011;38747;53.140;6.498;2022-11-04T08:23:45;3.97;;;1.10;;
52878;SDS011;38747;53.140;6.498;2022-11-04T08:26:13;5.13;;;1.00;;
52878;SDS011;38747;53.140;6.498;2022-11-04T08:28:41;6.47;;;1.10;;
52878;SDS011;38747;53.140;6.498;2022-11-04T08:31:08;4.07;;;1.10;;
52878;SDS011;38747;53.140;6.498;2022-11-04T08:33:38;5.20;;;1.10;;
52878;SDS011;38747;53.140;6.498;2022-11-04T08:36:09;3.03;;;1.10;;
52878;SDS011;38747;53.140;6.498;2022-11-04T08:38:37;4.00;;;0.90;;
52878;SDS011;38747;53.140;6.498;2022-11-04T08:41:03;4.78;;;1.15;;
52878;SDS011;38747;53.140;6.498;2022-11-04T08:43:30;4.97;;;0.98;;
52878;SDS011;38747;53.140;6.498;2022-11-04T08:45:58;5.87;;;1.20;;
52878;SDS011;38747;53.140;6.498;2022-11-04T08:48:24;4.07;;;1.00;;
52878;SDS011;38747;53.140;6.498;2022-11-04T08:50:51;6.38;;;1.27;;
52878;SDS011;38747;53.140;6.498;2022-11-04T08:53:18;7.37;;;1.40;;
52878;SDS011;38747;53.140;6.498;2022-11-04T08:55:44;4.13;;;1.10;;
52878;SDS011;38747;53.140;6.498;2022-11-04T08:58:09;4.90;;;1.08;;
52878;SDS011;38747;53.140;6.498;2022-11-04T09:00:35;8.67;;;1.27;;
52878;SDS011;38747;53.140;6.498;2022-11-04T09:03:01;4.27;;;0.90;;
52878;SDS011;38747;53.140;6.498;2022-11-04T09:05:27;5.10;;;1.10;;
52878;SDS011;38747;53.140;6.498;2022-11-04T09:07:53;3.92;;;1.13;;
52878;SDS011;38747;53.140;6.498;2022-11-04T09:10:19;5.78;;;1.00;;
52878;SDS011;38747;53.140;6.498;2022-11-04T09:12:45;5.00;;;0.90;;
52878;SDS011;38747;53.140;6.498;2022-11-04T09:15:11;5.70;;;1.42;;
52878;SDS011;38747;53.140;6.498;2022-11-04T09:17:37;3.43;;;0.90;;
52878;SDS011;38747;53.140;6.498;2022-11-04T09:20:04;3.85;;;0.90;;
52878;SDS011;38747;53.140;6.498;2022-11-04T09:22:30;6.72;;;0.90;;
52878;SDS011;38747;53.140;6.498;2022-11-04T09:24:56;3.60;;;0.90;;
52878;SDS011;38747;53.140;6.498;2022-11-04T09:27:22;6.50;;;1.10;;
52878;SDS011;38747;53.140;6.498;2022-11-04T09:29:47;4.13;;;0.82;;
52878;SDS011;38747;53.140;6.498;2022-11-04T09:32:13;4.17;;;1.20;;
52878;SDS011;38747;53.140;6.498;2022-11-04T09:34:39;3.95;;;0.80;;
52878;SDS011;38747;53.140;6.498;2022-11-04T09:37:05;4.83;;;0.70;;
52878;SDS011;38747;53.140;6.498;2022-11-04T09:39:30;5.30;;;1.23;;
52878;SDS011;38747;53.140;6.498;2022-11-04T09:47:11;3.83;;;0.98;;
52878;SDS011;38747;53.140;6.498;2022-11-04T09:49:38;5.63;;;0.87;;
52878;SDS011;38747;53.140;6.498;2022-11-04T09:52:20;4.35;;;0.90;;
52878;SDS011;38747;53.140;6.498;2022-11-04T09:55:01;4.45;;;1.10;;
52878;SDS011;38747;53.140;6.498;2022-11-04T09:57:42;4.90;;;1.13;;
52878;SDS011;38747;53.140;6.498;2022-11-04T10:00:14;5.47;;;1.00;;
52878;SDS011;38747;53.140;6.498;2022-11-04T10:11:16;6.28;;;1.05;;
52878;SDS011;38747;53.140;6.498;2022-11-04T10:13:52;5.40;;;1.17;;
52878;SDS011;38747;53.140;6.498;2022-11-04T10:25:00;4.35;;;1.02;;
52878;SDS011;38747;53.140;6.498;2022-11-04T10:27:35;3.87;;;1.00;;
52878;SDS011;38747;53.140;6.498;2022-11-04T10:32:48;6.22;;;0.80;;
52878;SDS011;38747;53.140;6.498;2022-11-04T10:40:48;6.20;;;1.13;;
52878;SDS011;38747;53.140;6.498;2022-11-04T10:43:17;6.90;;;0.77;;
52878;SDS011;38747;53.140;6.498;2022-11-04T10:45:54;4.70;;;0.82;;
52878;SDS011;38747;53.140;6.498;2022-11-04T10:48:49;5.68;;;0.93;;
52878;SDS011;38747;53.140;6.498;2022-11-04T10:51:20;5.03;;;0.80;;
52878;SDS011;38747;53.140;6.498;2022-11-04T10:53:52;6.03;;;0.83;;
52878;SDS011;38747;53.140;6.498;2022-11-04T10:59:15;6.47;;;0.70;;
52878;SDS011;38747;53.140;6.498;2022-11-04T11:01:50;6.00;;;0.80;;
52878;SDS011;38747;53.140;6.498;2022-11-04T11:04:25;5.22;;;0.93;;
52878;SDS011;38747;53.140;6.498;2022-11-04T11:06:59;6.20;;;0.90;;
52878;SDS011;38747;53.140;6.498;2022-11-04T11:09:27;6.95;;;1.33;;
52878;SDS011;38747;53.140;6.498;2022-11-04T11:12:01;4.95;;;0.70;;
52878;SDS011;38747;53.140;6.498;2022-11-04T11:14:34;5.90;;;0.85;;
52878;SDS011;38747;53.140;6.498;2022-11-04T12:40:17;4.28;;;0.70;;
52878;SDS011;38747;53.140;6.498;2022-11-04T12:45:55;3.60;;;0.50;;
52878;SDS011;38747;53.140;6.498;2022-11-04T12:51:14;4.28;;;0.80;;
52878;SDS011;38747;53.140;6.498;2022-11-04T12:54:14;2.90;;;0.60;;
52878;SDS011;38747;53.140;6.498;2022-11-04T12:56:56;2.97;;;0.83;;
52878;SDS011;38747;53.140;6.498;2022-11-04T13:02:43;5.75;;;0.63;;
52878;SDS011;38747;53.140;6.498;2022-11-04T13:05:23;4.68;;;0.88;;
52878;SDS011;38747;53.140;6.498;2022-11-04T13:08:07;4.60;;;0.60;;
52878;SDS011;38747;53.140;6.498;2022-11-04T13:10:43;5.17;;;0.90;;
52878;SDS011;38747;53.140;6.498;2022-11-04T13:13:17;5.60;;;0.80;;
52878;SDS011;38747;53.140;6.498;2022-11-04T13:15:54;6.75;;;0.90;;
52878;SDS011;38747;53.140;6.498;2022-11-04T13:18:22;4.95;;;0.80;;
52878;SDS011;38747;53.140;6.498;2022-11-04T13:21:03;3.55;;;0.85;;
52878;SDS011;38747;53.140;6.498;2022-11-04T13:26:13;5.13;;;0.68;;
52878;SDS011;38747;53.140;6.498;2022-11-04T13:28:41;5.78;;;0.70;;
52878;SDS011;38747;53.140;6.498;2022-11-04T13:31:11;3.55;;;0.80;;
52878;SDS011;38747;53.140;6.498;2022-11-04T13:44:20;6.85;;;0.98;;
52878;SDS011;38747;53.140;6.498;2022-11-04T13:46:56;4.57;;;0.60;;
52878;SDS011;38747;53.140;6.498;2022-11-04T13:49:29;5.50;;;0.70;;
52878;SDS011;38747;53.140;6.498;2022-11-04T13:52:02;9.15;;;1.48;;
52878;SDS011;38747;53.140;6.498;2022-11-04T13:54:38;6.72;;;0.90;;
52878;SDS011;38747;53.140;6.498;2022-11-04T13:57:09;6.18;;;1.05;;
52878;SDS011;38747;53.140;6.498;2022-11-04T15:16:52;8.50;;;0.88;;
52878;SDS011;38747;53.140;6.498;2022-11-04T15:19:29;9.82;;;1.35;;
52878;SDS011;38747;53.140;6.498;2022-11-04T15:21:57;9.43;;;1.00;;
52878;SDS011;38747;53.140;6.498;2022-11-04T15:24:25;6.40;;;0.77;;
52878;SDS011;38747;53.140;6.498;2022-11-04T15:26:52;8.63;;;1.40;;
52878;SDS011;38747;53.140;6.498;2022-11-04T15:29:22;7.88;;;0.88;;
52878;SDS011;38747;53.140;6.498;2022-11-04T15:31:55;5.95;;;1.00;;
52878;SDS011;38747;53.140;6.498;2022-11-04T15:34:24;6.30;;;0.90;;
52878;SDS011;38747;53.140;6.498;2022-11-04T15:36:51;7.30;;;0.80;;
52878;SDS011;38747;53.140;6.498;2022-11-04T15:39:22;7.45;;;0.90;;
52878;SDS011;38747;53.140;6.498;2022-11-04T15:41:56;9.35;;;0.85;;
52878;SDS011;38747;53.140;6.498;2022-11-04T15:44:48;6.45;;;0.95;;
52878;SDS011;38747;53.140;6.498;2022-11-04T15:49:46;5.73;;;0.70;;
52878;SDS011;38747;53.140;6.498;2022-11-04T15:52:24;7.78;;;1.00;;
52878;SDS011;38747;53.140;6.498;2022-11-04T15:54:52;7.82;;;1.40;;
52878;SDS011;38747;53.140;6.498;2022-11-04T15:59:53;7.97;;;0.90;;
52878;SDS011;38747;53.140;6.498;2022-11-04T16:02:26;5.27;;;0.77;;
52878;SDS011;38747;53.140;6.498;2022-11-04T16:05:28;4.63;;;0.90;;
52878;SDS011;38747;53.140;6.498;2022-11-04T16:10:46;7.53;;;1.40;;
52878;SDS011;38747;53.140;6.498;2022-11-04T16:18:20;7.07;;;0.90;;
52878;SDS011;38747;53.140;6.498;2022-11-04T16:20:47;6.13;;;1.30;;
52878;SDS011;38747;53.140;6.498;2022-11-04T16:23:21;9.90;;;1.23;;
52878;SDS011;38747;53.140;6.498;2022-11-04T16:25:56;7.47;;;1.08;;
52878;SDS011;38747;53.140;6.498;2022-11-04T16:28:26;8.52;;;1.70;;
52878;SDS011;38747;53.140;6.498;2022-11-04T16:31:05;8.07;;;1.30;;
52878;SDS011;38747;53.140;6.498;2022-11-04T16:33:32;9.15;;;1.30;;
52878;SDS011;38747;53.140;6.498;2022-11-04T16:35:58;4.73;;;1.23;;
52878;SDS011;38747;53.140;6.498;2022-11-04T16:38:24;9.80;;;1.40;;
52878;SDS011;38747;53.140;6.498;2022-11-04T16:40:50;9.93;;;1.40;;
52878;SDS011;38747;53.140;6.498;2022-11-04T16:43:17;5.57;;;1.30;;
52878;SDS011;38747;53.140;6.498;2022-11-04T16:45:45;5.32;;;1.10;;
52878;SDS011;38747;53.140;6.498;2022-11-04T16:48:17;9.45;;;1.13;;
52878;SDS011;38747;53.140;6.498;2022-11-04T16:50:43;8.02;;;1.27;;
52878;SDS011;38747;53.140;6.498;2022-11-04T16:53:10;6.70;;;1.30;;
52878;SDS011;38747;53.140;6.498;2022-11-04T16:55:38;6.00;;;1.40;;
52878;SDS011;38747;53.140;6.498;2022-11-04T16:58:05;8.80;;;1.45;;
52878;SDS011;38747;53.140;6.498;2022-11-04T17:00:32;7.35;;;1.70;;
52878;SDS011;38747;53.140;6.498;2022-11-04T17:02:58;7.40;;;1.85;;
52878;SDS011;38747;53.140;6.498;2022-11-04T17:05:25;8.10;;;1.80;;
52878;SDS011;38747;53.140;6.498;2022-11-04T17:07:50;8.43;;;1.90;;
52878;SDS011;38747;53.140;6.498;2022-11-04T17:10:17;9.10;;;2.30;;
52878;SDS011;38747;53.140;6.498;2022-11-04T17:12:47;7.63;;;2.30;;
52878;SDS011;38747;53.140;6.498;2022-11-04T17:15:13;8.45;;;2.42;;
52878;SDS011;38747;53.140;6.498;2022-11-04T17:17:40;8.52;;;2.75;;
52878;SDS011;38747;53.140;6.498;2022-11-04T17:20:06;10.47;;;2.97;;
52878;SDS011;38747;53.140;6.498;2022-11-04T17:22:33;9.00;;;2.67;;
52878;SDS011;38747;53.140;6.498;2022-11-04T17:25:00;10.43;;;2.58;;
52878;SDS011;38747;53.140;6.498;2022-11-04T17:27:26;9.15;;;2.35;;
52878;SDS011;38747;53.140;6.498;2022-11-04T17:29:52;11.57;;;2.30;;
52878;SDS011;38747;53.140;6.498;2022-11-04T17:32:18;9.35;;;2.40;;
52878;SDS011;38747;53.140;6.498;2022-11-04T17:34:44;11.80;;;3.45;;
52878;SDS011;38747;53.140;6.498;2022-11-04T17:37:10;11.80;;;3.30;;
52878;SDS011;38747;53.140;6.498;2022-11-04T17:39:37;10.48;;;4.30;;
52878;SDS011;38747;53.140;6.498;2022-11-04T17:42:04;11.73;;;4.97;;
52878;SDS011;38747;53.140;6.498;2022-11-04T17:44:48;10.32;;;4.35;;
52878;SDS011;38747;53.140;6.498;2022-11-04T17:47:13;9.20;;;3.67;;
52878;SDS011;38747;53.140;6.498;2022-11-04T17:49:39;10.70;;;2.50;;
52878;SDS011;38747;53.140;6.498;2022-11-04T17:52:05;8.80;;;2.30;;
52878;SDS011;38747;53.140;6.498;2022-11-04T17:54:32;11.77;;;2.58;;
52878;SDS011;38747;53.140;6.498;2022-11-04T17:56:58;7.18;;;2.30;;
52878;SDS011;38747;53.140;6.498;2022-11-04T17:59:24;11.13;;;2.67;;
52878;SDS011;38747;53.140;6.498;2022-11-04T18:01:50;13.02;;;3.20;;
52878;SDS011;38747;53.140;6.498;2022-11-04T18:04:17;9.53;;;2.37;;
52878;SDS011;38747;53.140;6.498;2022-11-04T18:06:44;8.90;;;2.78;;
52878;SDS011;38747;53.140;6.498;2022-11-04T18:09:10;8.27;;;2.60;;
52878;SDS011;38747;53.140;6.498;2022-11-04T18:11:37;7.60;;;2.30;;
52878;SDS011;38747;53.140;6.498;2022-11-04T18:14:21;9.10;;;2.30;;
52878;SDS011;38747;53.140;6.498;2022-11-04T18:16:47;9.02;;;2.28;;
52878;SDS011;38747;53.140;6.498;2022-11-04T18:19:17;10.15;;;2.58;;
52878;SDS011;38747;53.140;6.498;2022-11-04T18:21:44;7.43;;;2.25;;
52878;SDS011;38747;53.140;6.498;2022-11-04T18:24:10;7.87;;;2.27;;
52878;SDS011;38747;53.140;6.498;2022-11-04T18:26:36;8.27;;;2.40;;
52878;SDS011;38747;53.140;6.498;2022-11-04T18:29:02;9.95;;;2.22;;
52878;SDS011;38747;53.140;6.498;2022-11-04T18:31:36;9.03;;;2.00;;
52878;SDS011;38747;53.140;6.498;2022-11-04T18:34:04;8.77;;;2.30;;
52878;SDS011;38747;53.140;6.498;2022-11-04T18:36:34;7.38;;;1.70;;
52878;SDS011;38747;53.140;6.498;2022-11-04T18:39:02;9.32;;;2.10;;
52878;SDS011;38747;53.140;6.498;2022-11-04T18:41:30;9.77;;;2.30;;
52878;SDS011;38747;53.140;6.498;2022-11-04T18:43:56;9.07;;;2.00;;
52878;SDS011;38747;53.140;6.498;2022-11-04T18:46:24;10.15;;;2.42;;
52878;SDS011;38747;53.140;6.498;2022-11-04T18:48:50;9.23;;;2.80;;
52878;SDS011;38747;53.140;6.498;2022-11-04T18:51:17;11.15;;;3.65;;
52878;SDS011;38747;53.140;6.498;2022-11-04T18:53:44;9.97;;;2.80;;
52878;SDS011;38747;53.140;6.498;2022-11-04T18:56:12;11.38;;;3.00;;
52878;SDS011;38747;53.140;6.498;2022-11-04T18:58:40;14.20;;;5.82;;
52878;SDS011;38747;53.140;6.498;2022-11-04T19:01:09;10.38;;;3.45;;
52878;SDS011;38747;53.140;6.498;2022-11-04T19:03:39;9.85;;;2.90;;
52878;SDS011;38747;53.140;6.498;2022-11-04T19:06:09;10.87;;;3.50;;
52878;SDS011;38747;53.140;6.498;2022-11-04T19:08:37;10.32;;;3.60;;
52878;SDS011;38747;53.140;6.498;2022-11-04T19:11:11;9.20;;;2.72;;
52878;SDS011;38747;53.140;6.498;2022-11-04T19:13:52;9.13;;;3.33;;
52878;SDS011;38747;53.140;6.498;2022-11-04T19:16:23;9.63;;;2.57;;
52878;SDS011;38747;53.140;6.498;2022-11-04T19:18:49;10.73;;;2.90;;
52878;SDS011;38747;53.140;6.498;2022-11-04T19:21:17;10.70;;;2.75;;
52878;SDS011;38747;53.140;6.498;2022-11-04T19:23:44;10.68;;;3.13;;
52878;SDS011;38747;53.140;6.498;2022-11-04T19:26:15;11.00;;;2.70;;
52878;SDS011;38747;53.140;6.498;2022-11-04T19:28:43;8.33;;;3.17;;